createdAt,value
2017-12-19T00:02:00.444Z,87.79
2017-12-19T00:04:28.120Z,87.83
2017-12-19T00:06:55.850Z,87.90
2017-12-19T00:09:23.459Z,88.05
2017-12-19T00:11:51.111Z,87.92
2017-12-19T00:14:18.763Z,87.88
2017-12-19T00:16:46.415Z,87.72
2017-12-19T00:19:14.011Z,87.76
2017-12-19T00:21:41.743Z,87.88
2017-12-19T00:24:09.359Z,87.88
2017-12-19T00:26:36.971Z,87.15
2017-12-19T00:29:04.659Z,87.83
2017-12-19T00:31:32.259Z,88.14
2017-12-19T00:33:59.920Z,88.13
2017-12-19T00:36:27.636Z,88.26
2017-12-19T00:38:55.303Z,88.23
2017-12-19T00:41:22.959Z,88.24
2017-12-19T00:43:50.632Z,88.09
2017-12-19T00:46:18.238Z,88.36
2017-12-19T00:48:45.912Z,88.49
2017-12-19T00:51:13.574Z,88.40
2017-12-19T00:53:41.246Z,88.15
2017-12-19T00:56:09.412Z,87.90
2017-12-19T00:58:37.151Z,88.09
2017-12-19T01:01:04.834Z,87.55
2017-12-19T01:03:32.440Z,87.47
2017-12-19T01:06:00.159Z,87.32
2017-12-19T01:08:27.847Z,87.25
2017-12-19T01:10:55.451Z,87.44
2017-12-19T01:13:23.172Z,87.63
2017-12-19T01:15:50.786Z,87.41
2017-12-19T01:18:18.394Z,87.60
2017-12-19T01:20:46.055Z,87.85
2017-12-19T01:23:13.654Z,88.11
2017-12-19T01:25:41.259Z,88.40
2017-12-19T01:28:08.934Z,88.22
2017-12-19T01:30:36.535Z,88.40
2017-12-19T01:33:04.143Z,88.14
2017-12-19T01:35:31.795Z,88.14
2017-12-19T01:37:59.394Z,88.17
2017-12-19T01:40:26.998Z,87.49
2017-12-19T01:42:54.719Z,87.32
2017-12-19T01:45:22.314Z,87.45
2017-12-19T01:47:49.979Z,87.65
2017-12-19T01:50:17.629Z,87.83
2017-12-19T01:52:45.239Z,87.67
2017-12-19T01:55:12.843Z,87.84
2017-12-19T01:57:40.561Z,87.82
2017-12-19T02:00:08.344Z,87.99
2017-12-19T02:02:35.953Z,87.93
2017-12-19T02:05:03.618Z,87.48
2017-12-19T02:07:31.215Z,87.49
2017-12-19T02:09:58.814Z,87.58
2017-12-19T02:12:26.471Z,87.89
2017-12-19T02:14:54.079Z,87.35
2017-12-19T02:17:21.695Z,87.70
2017-12-19T02:19:49.395Z,88.05
2017-12-19T02:22:17.014Z,88.25
2017-12-19T02:24:44.635Z,88.42
2017-12-19T02:27:12.343Z,88.15
2017-12-19T02:29:39.947Z,88.01
2017-12-19T02:32:07.628Z,88.03
2017-12-19T02:34:35.375Z,87.85
2017-12-19T02:37:03.014Z,87.74
2017-12-19T02:39:30.696Z,87.58
2017-12-19T02:41:58.374Z,87.79
2017-12-19T02:44:25.996Z,87.77
2017-12-19T02:46:53.699Z,88.14
2017-12-19T02:49:21.383Z,88.18
2017-12-19T02:51:49.159Z,88.24
2017-12-19T02:54:16.853Z,87.80
2017-12-19T02:56:44.618Z,87.76
2017-12-19T02:59:12.283Z,87.76
2017-12-19T03:01:39.920Z,87.84
2017-12-19T03:04:07.587Z,87.81
2017-12-19T03:06:35.319Z,88.00
2017-12-19T03:09:03.092Z,87.88
2017-12-19T03:11:30.781Z,87.86
2017-12-19T03:13:58.403Z,87.78
2017-12-19T03:16:26.115Z,87.94
2017-12-19T03:18:53.911Z,88.19
2017-12-19T03:21:21.543Z,88.17
2017-12-19T03:23:49.167Z,88.13
2017-12-19T03:26:16.858Z,88.17
2017-12-19T03:28:44.482Z,88.24
2017-12-19T03:31:12.103Z,88.22
2017-12-19T03:33:39.793Z,88.40
2017-12-19T03:36:07.479Z,88.51
2017-12-19T03:38:35.187Z,88.73
2017-12-19T03:41:02.863Z,88.78
2017-12-19T03:43:30.558Z,88.59
2017-12-19T03:45:58.191Z,88.14
2017-12-19T03:48:25.871Z,88.22
2017-12-19T03:50:53.571Z,87.94
2017-12-19T03:53:21.258Z,88.06
2017-12-19T03:55:49.003Z,88.10
2017-12-19T03:58:16.630Z,87.76
2017-12-19T04:00:44.520Z,87.83
2017-12-19T04:03:12.191Z,87.77
2017-12-19T04:05:39.939Z,87.41
2017-12-19T04:08:07.564Z,87.23
2017-12-19T04:10:35.246Z,86.79
2017-12-19T04:13:02.933Z,87.10
2017-12-19T04:15:30.628Z,87.37
2017-12-19T04:17:58.306Z,87.51
2017-12-19T04:20:25.935Z,87.54
2017-12-19T04:22:53.608Z,87.76
2017-12-19T04:25:21.286Z,87.81
2017-12-19T04:27:48.973Z,87.98
2017-12-19T04:30:16.594Z,87.96
2017-12-19T04:32:44.271Z,88.17
2017-12-19T04:35:11.902Z,88.25
2017-12-19T04:37:39.580Z,88.08
2017-12-19T04:40:07.270Z,88.03
2017-12-19T04:42:34.904Z,88.10
2017-12-19T04:45:02.594Z,88.20
2017-12-19T04:47:30.263Z,88.24
2017-12-19T04:49:57.874Z,88.25
2017-12-19T04:52:25.551Z,88.37
2017-12-19T04:54:53.234Z,88.54
2017-12-19T04:57:20.851Z,88.54
2017-12-19T04:59:48.483Z,88.66
2017-12-19T05:02:16.150Z,88.88
2017-12-19T05:04:43.773Z,88.77
2017-12-19T05:07:11.411Z,88.71
2017-12-19T05:09:39.135Z,88.69
2017-12-19T05:12:06.819Z,88.57
2017-12-19T05:14:34.459Z,88.45
2017-12-19T05:17:02.118Z,88.58
2017-12-19T05:19:29.730Z,88.43
2017-12-19T05:21:57.348Z,88.30
2017-12-19T05:24:25.027Z,88.34
2017-12-19T05:26:52.643Z,88.41
2017-12-19T05:29:20.324Z,88.28
2017-12-19T05:31:48.056Z,88.39
2017-12-19T05:34:15.679Z,88.25
2017-12-19T05:36:43.287Z,88.23
2017-12-19T05:39:11.048Z,88.44
2017-12-19T05:41:38.664Z,88.53
2017-12-19T05:44:06.349Z,88.29
2017-12-19T05:46:34.092Z,88.43
2017-12-19T05:49:01.715Z,88.58
2017-12-19T05:51:29.347Z,88.41
2017-12-19T05:53:57.020Z,88.52
2017-12-19T05:56:24.695Z,88.60
2017-12-19T05:58:52.306Z,88.83
2017-12-19T06:01:20.011Z,88.78
2017-12-19T06:03:47.693Z,88.84
2017-12-19T06:06:15.312Z,88.84
2017-12-19T06:08:42.985Z,88.95
2017-12-19T06:11:10.608Z,89.01
2017-12-19T06:13:38.231Z,88.97
2017-12-19T06:16:05.909Z,88.80
2017-12-19T06:18:33.584Z,88.64
2017-12-19T06:21:01.271Z,88.54
2017-12-19T06:23:28.968Z,88.49
2017-12-19T06:25:56.599Z,88.12
2017-12-19T06:28:24.220Z,87.84
2017-12-19T06:30:51.943Z,87.66
2017-12-19T06:33:19.623Z,87.34
2017-12-19T06:35:47.312Z,87.27
2017-12-19T06:38:14.986Z,87.16
2017-12-19T06:40:42.663Z,87.48
2017-12-19T06:43:10.275Z,87.57
2017-12-19T06:45:38.008Z,86.74
2017-12-19T06:48:05.629Z,86.95
2017-12-19T06:50:33.307Z,86.84
2017-12-19T06:53:00.980Z,86.71
2017-12-19T06:55:28.612Z,86.40
2017-12-19T06:57:56.228Z,86.41
2017-12-19T07:00:23.940Z,85.95
2017-12-19T07:02:51.623Z,85.87
2017-12-19T07:05:19.248Z,85.69
2017-12-19T07:07:46.926Z,85.67
2017-12-19T07:10:14.544Z,85.62
2017-12-19T07:12:42.170Z,85.73
2017-12-19T07:15:09.904Z,86.07
2017-12-19T07:17:37.528Z,85.57
2017-12-19T07:20:05.202Z,85.46
2017-12-19T07:22:32.879Z,85.16
2017-12-19T07:25:00.524Z,85.21
2017-12-19T07:27:28.150Z,85.10
2017-12-19T07:29:55.866Z,85.06
2017-12-19T07:32:23.479Z,84.65
2017-12-19T07:34:51.155Z,84.64
2017-12-19T07:37:18.827Z,84.93
2017-12-19T07:39:46.468Z,84.50
2017-12-19T07:42:14.092Z,84.50
2017-12-19T07:44:41.783Z,84.18
2017-12-19T07:47:09.446Z,84.49
2017-12-19T07:49:37.058Z,84.87
2017-12-19T07:52:04.727Z,84.30
2017-12-19T07:54:32.331Z,84.14
2017-12-19T07:56:59.967Z,83.56
2017-12-19T07:59:27.627Z,83.76
2017-12-19T08:01:55.235Z,83.49
2017-12-19T08:04:22.831Z,83.08
2017-12-19T08:06:50.483Z,83.56
2017-12-19T08:09:18.102Z,83.83
2017-12-19T08:11:45.705Z,83.70
2017-12-19T08:14:13.374Z,82.90
2017-12-19T08:16:41.057Z,81.82
2017-12-19T08:19:08.666Z,81.89
2017-12-19T08:21:36.318Z,81.43
2017-12-19T08:24:03.919Z,80.67
2017-12-19T08:26:31.574Z,81.24
2017-12-19T08:28:59.235Z,82.71
2017-12-19T08:31:26.892Z,82.76
2017-12-19T08:33:54.486Z,82.43
2017-12-19T08:36:22.150Z,82.04
2017-12-19T08:38:49.812Z,81.40
2017-12-19T08:41:17.415Z,81.43
2017-12-19T08:43:45.096Z,81.57
2017-12-19T08:46:12.751Z,82.49
2017-12-19T08:48:40.361Z,82.69
2017-12-19T08:51:08.020Z,82.27
2017-12-19T08:53:35.686Z,82.26
2017-12-19T08:56:03.331Z,82.24
2017-12-19T08:58:31.055Z,83.06
2017-12-19T09:00:58.655Z,83.64
2017-12-19T09:03:26.258Z,84.02
2017-12-19T09:05:53.930Z,84.33
2017-12-19T09:08:21.531Z,84.28
2017-12-19T09:10:49.127Z,84.65
2017-12-19T09:13:16.809Z,84.85
2017-12-19T09:15:44.447Z,84.80
2017-12-19T09:18:12.107Z,85.01
2017-12-19T09:20:39.821Z,84.97
2017-12-19T09:23:07.423Z,85.56
2017-12-19T09:25:35.034Z,85.85
2017-12-19T09:28:02.691Z,86.18
2017-12-19T09:30:30.347Z,86.69
2017-12-19T09:32:57.947Z,87.09
2017-12-19T09:35:25.599Z,87.24
2017-12-19T09:37:53.194Z,87.19
2017-12-19T09:40:20.855Z,87.35
2017-12-19T09:42:48.503Z,87.18
2017-12-19T09:45:16.102Z,87.17
2017-12-19T09:47:43.703Z,87.27
2017-12-19T09:50:11.393Z,87.17
2017-12-19T09:52:38.991Z,86.93
2017-12-19T09:55:06.590Z,86.52
2017-12-19T09:57:34.244Z,86.39
2017-12-19T10:00:01.851Z,86.09
2017-12-19T10:02:29.523Z,85.85
2017-12-19T10:04:57.234Z,85.84
2017-12-19T10:07:24.843Z,85.29
2017-12-19T10:09:52.443Z,85.51
2017-12-19T10:12:20.162Z,84.53
2017-12-19T10:14:47.767Z,84.68
2017-12-19T10:17:15.434Z,84.50
2017-12-19T10:19:43.146Z,84.25
2017-12-19T10:22:10.778Z,84.56
2017-12-19T10:24:38.410Z,84.35
2017-12-19T10:27:06.199Z,85.36
2017-12-19T10:29:33.831Z,85.02
2017-12-19T10:32:01.479Z,84.73
2017-12-19T10:34:29.196Z,84.87
2017-12-19T10:36:56.807Z,84.88
2017-12-19T10:39:24.407Z,84.87
2017-12-19T10:41:52.083Z,84.57
2017-12-19T10:44:19.779Z,84.42
2017-12-19T10:46:47.387Z,84.34
2017-12-19T10:49:15.095Z,84.25
2017-12-19T10:51:42.694Z,84.57
2017-12-19T10:54:10.299Z,84.77
2017-12-19T10:56:37.962Z,84.60
2017-12-19T10:59:05.618Z,84.62
2017-12-19T11:01:33.290Z,84.19
2017-12-19T11:04:00.947Z,84.54
2017-12-19T11:06:28.555Z,84.80
2017-12-19T11:08:56.155Z,84.67
2017-12-19T11:11:23.866Z,84.58
2017-12-19T11:13:51.470Z,84.40
2017-12-19T11:16:19.127Z,84.42
2017-12-19T11:18:46.839Z,84.43
2017-12-19T11:21:14.438Z,84.12
2017-12-19T11:23:42.167Z,83.75
2017-12-19T11:26:09.923Z,83.77
2017-12-19T11:28:37.691Z,83.54
2017-12-19T11:31:05.355Z,84.32
2017-12-19T11:33:33.127Z,84.12
2017-12-19T11:36:00.907Z,83.64
2017-12-19T11:38:28.603Z,83.54
2017-12-19T11:40:57.227Z,84.30
2017-12-19T11:43:24.832Z,84.42
2017-12-19T11:45:52.439Z,83.99
2017-12-19T11:48:20.107Z,83.82
2017-12-19T11:50:47.706Z,84.64
2017-12-19T11:53:15.319Z,84.42
2017-12-19T11:55:42.975Z,83.84
2017-12-19T11:58:10.582Z,84.16
2017-12-19T12:00:38.194Z,84.45
2017-12-19T12:03:05.851Z,84.78
2017-12-19T12:05:33.462Z,84.43
2017-12-19T12:08:01.120Z,84.35
2017-12-19T12:10:28.766Z,84.40
2017-12-19T12:12:56.371Z,83.71
2017-12-19T12:15:23.976Z,83.99
2017-12-19T12:17:51.640Z,84.58
2017-12-19T12:20:19.311Z,84.84
2017-12-19T12:22:46.983Z,84.96
2017-12-19T12:25:14.715Z,84.83
2017-12-19T12:27:42.322Z,84.15
2017-12-19T12:30:09.940Z,84.50
2017-12-19T12:32:37.627Z,84.84
2017-12-19T12:35:05.240Z,84.68
2017-12-19T12:37:32.842Z,84.56
2017-12-19T12:40:00.589Z,84.27
2017-12-19T12:42:28.287Z,84.94
2017-12-19T12:44:55.887Z,84.85
2017-12-19T12:47:23.566Z,85.34
2017-12-19T12:49:51.231Z,85.48
2017-12-19T12:52:18.964Z,86.06
2017-12-19T12:54:46.685Z,87.00
2017-12-19T12:57:14.387Z,86.93
2017-12-19T12:59:42.076Z,86.86
2017-12-19T13:02:09.783Z,86.61
2017-12-19T13:04:37.407Z,86.46
2017-12-19T13:07:05.072Z,86.43
2017-12-19T13:09:32.758Z,86.55
2017-12-19T13:12:00.387Z,86.36
2017-12-19T13:14:27.994Z,87.17
2017-12-19T13:16:55.651Z,87.16
2017-12-19T13:19:23.255Z,87.11
2017-12-19T13:21:50.864Z,87.28
2017-12-19T13:24:18.518Z,87.22
2017-12-19T13:26:46.119Z,86.85
2017-12-19T13:29:13.783Z,86.87
2017-12-19T13:31:41.458Z,86.82
2017-12-19T13:34:09.123Z,87.55
2017-12-19T13:36:36.779Z,87.65
2017-12-19T13:39:04.582Z,87.77
2017-12-19T13:41:32.184Z,88.33
2017-12-19T13:43:59.794Z,88.45
2017-12-19T13:46:27.448Z,88.42
2017-12-19T13:48:55.056Z,88.69
2017-12-19T13:51:22.719Z,88.46
2017-12-19T13:53:50.387Z,88.57
2017-12-19T13:56:18.051Z,88.71
2017-12-19T13:58:45.697Z,89.00
2017-12-19T14:01:13.447Z,89.07
2017-12-19T14:03:41.055Z,89.00
2017-12-19T14:06:08.751Z,88.95
2017-12-19T14:08:36.411Z,88.55
2017-12-19T14:11:04.014Z,88.76
2017-12-19T14:13:31.611Z,89.12
2017-12-19T14:15:59.266Z,89.12
2017-12-19T14:18:26.927Z,89.56
2017-12-19T14:20:54.583Z,89.45
2017-12-19T14:23:22.295Z,89.46
2017-12-19T14:25:49.894Z,89.27
2017-12-19T14:28:17.491Z,89.08
2017-12-19T14:30:45.151Z,89.01
2017-12-19T14:33:12.784Z,89.02
2017-12-19T14:35:40.387Z,88.97
2017-12-19T14:38:08.099Z,89.25
2017-12-19T14:40:35.755Z,89.21
2017-12-19T14:43:03.465Z,89.37
2017-12-19T14:45:31.142Z,89.54
2017-12-19T14:47:58.743Z,89.55
2017-12-19T14:50:26.403Z,89.64
2017-12-19T14:52:54.147Z,89.62
2017-12-19T14:55:21.754Z,89.83
2017-12-19T14:57:49.358Z,89.81
2017-12-19T15:00:17.047Z,89.76
2017-12-19T15:02:44.712Z,89.85
2017-12-19T15:05:12.416Z,89.85
2017-12-19T15:07:40.132Z,89.67
2017-12-19T15:10:07.735Z,89.75
2017-12-19T15:12:35.396Z,89.51
2017-12-19T15:15:03.080Z,89.42
2017-12-19T15:17:30.745Z,88.97
2017-12-19T15:19:58.413Z,89.09
2017-12-19T15:22:26.090Z,89.19
2017-12-19T15:24:53.700Z,89.55
2017-12-19T15:27:21.364Z,89.53
2017-12-19T15:29:49.024Z,89.53
2017-12-19T15:32:16.627Z,89.54
2017-12-19T15:34:44.227Z,89.59
2017-12-19T15:37:11.888Z,89.90
2017-12-19T15:39:39.544Z,89.05
2017-12-19T15:42:07.154Z,89.44
2017-12-19T15:44:34.923Z,89.49
2017-12-19T15:47:02.544Z,89.71
2017-12-19T15:49:30.155Z,89.79
2017-12-19T15:51:57.827Z,89.79
2017-12-19T15:54:25.427Z,89.96
2017-12-19T15:56:53.070Z,89.95
2017-12-19T15:59:20.771Z,90.04
2017-12-19T16:01:48.374Z,89.70
2017-12-19T16:04:15.980Z,89.43
2017-12-19T16:06:43.636Z,89.49
2017-12-19T16:09:11.237Z,89.75
2017-12-19T16:11:38.952Z,89.80
2017-12-19T16:14:06.604Z,89.31
2017-12-19T16:16:34.263Z,89.20
2017-12-19T16:19:01.995Z,89.32
2017-12-19T16:21:29.707Z,89.36
2017-12-19T16:23:57.310Z,89.32
2017-12-19T16:26:24.906Z,89.44
2017-12-19T16:28:52.586Z,89.07
2017-12-19T16:31:20.247Z,89.03
2017-12-19T16:33:47.854Z,89.37
2017-12-19T16:36:15.571Z,89.25
2017-12-19T16:38:43.178Z,88.89
2017-12-19T16:41:10.785Z,89.04
2017-12-19T16:43:38.507Z,89.18
2017-12-19T16:46:06.168Z,89.14
2017-12-19T16:48:33.834Z,89.20
2017-12-19T16:51:01.542Z,89.07
2017-12-19T16:53:29.144Z,89.18
2017-12-19T16:55:56.743Z,89.09
2017-12-19T16:58:24.485Z,88.80
2017-12-19T17:00:52.151Z,88.76
2017-12-19T17:03:19.819Z,89.17
2017-12-19T17:05:47.539Z,88.80
2017-12-19T17:08:15.146Z,89.14
2017-12-19T17:10:42.750Z,89.36
2017-12-19T17:13:10.420Z,89.42
2017-12-19T17:15:38.101Z,89.16
2017-12-19T17:18:05.710Z,89.27
2017-12-19T17:20:33.362Z,89.40
2017-12-19T17:23:01.028Z,89.33
2017-12-19T17:25:28.691Z,89.22
2017-12-19T17:27:56.351Z,89.25
2017-12-19T17:30:23.959Z,89.07
2017-12-19T17:32:51.619Z,89.09
2017-12-19T17:35:19.275Z,88.94
2017-12-19T17:37:47.083Z,88.80
2017-12-19T17:40:14.691Z,88.76
2017-12-19T17:42:42.354Z,88.89
2017-12-19T17:45:09.954Z,88.04
2017-12-19T17:47:37.591Z,88.26
2017-12-19T17:50:05.311Z,88.24
2017-12-19T17:52:32.975Z,87.79
2017-12-19T17:55:00.583Z,87.86
2017-12-19T17:57:28.248Z,87.49
2017-12-19T17:59:55.914Z,87.64
2017-12-19T18:02:23.583Z,87.27
2017-12-19T18:04:51.246Z,87.67
2017-12-19T18:07:18.860Z,86.96
2017-12-19T18:09:46.467Z,86.98
2017-12-19T18:12:14.128Z,86.50
2017-12-19T18:14:41.794Z,86.66
2017-12-19T18:17:09.460Z,86.31
2017-12-19T18:19:37.170Z,86.34
2017-12-19T18:22:04.780Z,84.87
2017-12-19T18:24:32.455Z,84.19
2017-12-19T18:27:00.110Z,85.19
2017-12-19T18:29:27.770Z,85.44
2017-12-19T18:31:55.376Z,85.37
2017-12-19T18:34:23.026Z,84.87
2017-12-19T18:36:50.702Z,84.88
2017-12-19T18:39:18.316Z,84.92
2017-12-19T18:41:46.047Z,84.70
2017-12-19T18:44:13.651Z,84.97
2017-12-19T18:46:41.259Z,84.48
2017-12-19T18:49:08.917Z,84.59
2017-12-19T18:51:36.577Z,84.41
2017-12-19T18:54:04.239Z,84.22
2017-12-19T18:56:31.967Z,84.54
2017-12-19T18:58:59.569Z,84.29
2017-12-19T19:01:27.248Z,83.82
2017-12-19T19:03:54.930Z,83.12
2017-12-19T19:06:22.538Z,83.22
2017-12-19T19:08:50.199Z,83.93
2017-12-19T19:11:17.911Z,83.43
2017-12-19T19:13:45.585Z,82.84
2017-12-19T19:16:13.351Z,83.25
2017-12-19T19:18:41.107Z,82.86
2017-12-19T19:21:08.723Z,81.86
2017-12-19T19:23:36.398Z,82.71
2017-12-19T19:26:04.054Z,82.20
2017-12-19T19:28:31.719Z,82.85
2017-12-19T19:30:59.315Z,82.36
2017-12-19T19:33:26.973Z,81.72
2017-12-19T19:35:54.591Z,81.37
2017-12-19T19:38:22.203Z,81.72
2017-12-19T19:40:49.960Z,81.84
2017-12-19T19:43:17.565Z,81.26
2017-12-19T19:45:45.471Z,81.47
2017-12-19T19:48:13.137Z,81.45
2017-12-19T19:50:40.743Z,81.46
2017-12-19T19:53:08.407Z,81.45
2017-12-19T19:55:36.125Z,82.05
2017-12-19T19:58:03.743Z,81.66
2017-12-19T20:00:31.348Z,81.41
2017-12-19T20:02:59.004Z,80.84
2017-12-19T20:05:26.668Z,80.89
2017-12-19T20:07:54.267Z,81.18
2017-12-19T20:10:21.931Z,80.77
2017-12-19T20:12:49.551Z,80.50
2017-12-19T20:15:17.159Z,81.40
2017-12-19T20:17:44.819Z,80.67
2017-12-19T20:20:12.480Z,80.59
2017-12-19T20:22:40.090Z,80.74
2017-12-19T20:25:07.799Z,80.74
2017-12-19T20:27:35.409Z,80.74
2017-12-19T20:30:03.014Z,80.77
2017-12-19T20:32:30.676Z,80.92
2017-12-19T20:34:58.340Z,80.26
2017-12-19T20:37:25.947Z,80.39
2017-12-19T20:39:53.665Z,80.51
2017-12-19T20:42:21.271Z,80.35
2017-12-19T20:44:48.882Z,80.59
2017-12-19T20:47:16.554Z,80.04
2017-12-19T20:49:44.165Z,80.14
2017-12-19T20:52:11.836Z,79.98
2017-12-19T20:54:39.519Z,80.16
2017-12-19T20:57:07.123Z,79.60
2017-12-19T20:59:34.734Z,79.38
2017-12-19T21:02:02.395Z,79.52
2017-12-19T21:04:30.011Z,79.95
2017-12-19T21:06:57.619Z,80.49
2017-12-19T21:09:25.279Z,79.83
2017-12-19T21:11:52.890Z,79.39
2017-12-19T21:14:20.500Z,79.75
2017-12-19T21:16:48.214Z,79.36
2017-12-19T21:19:15.820Z,79.61
2017-12-19T21:21:43.433Z,79.29
2017-12-19T21:24:11.091Z,79.49
2017-12-19T21:26:38.767Z,78.83
2017-12-19T21:29:06.432Z,78.89
2017-12-19T21:31:34.103Z,78.37
2017-12-19T21:34:01.706Z,77.87
2017-12-19T21:36:29.373Z,78.86
2017-12-19T21:38:57.033Z,78.12
2017-12-19T21:41:24.700Z,77.39
2017-12-19T21:43:52.379Z,77.92
2017-12-19T21:46:20.039Z,77.26
2017-12-19T21:48:47.651Z,78.00
2017-12-19T21:51:15.365Z,77.58
2017-12-19T21:53:43.083Z,78.28
2017-12-19T21:56:10.689Z,77.62
2017-12-19T21:58:38.351Z,77.83
2017-12-19T22:01:06.010Z,77.76
2017-12-19T22:03:33.692Z,78.46
2017-12-19T22:06:01.359Z,78.14
2017-12-19T22:08:29.027Z,77.69
2017-12-19T22:10:56.638Z,77.59
2017-12-19T22:13:24.239Z,77.84
2017-12-19T22:15:51.907Z,78.01
2017-12-19T22:18:19.511Z,78.32
2017-12-19T22:20:47.112Z,78.03
2017-12-19T22:23:14.827Z,76.91
2017-12-19T22:25:42.497Z,76.82
2017-12-19T22:28:10.090Z,77.07
2017-12-19T22:30:37.747Z,76.22
2017-12-19T22:33:05.359Z,76.46
2017-12-19T22:35:32.970Z,76.58
2017-12-19T22:38:00.744Z,76.13
2017-12-19T22:40:28.344Z,76.22
2017-12-19T22:42:55.942Z,75.86
2017-12-19T22:45:23.602Z,76.82
2017-12-19T22:47:51.266Z,75.80
2017-12-19T22:50:18.874Z,76.08
2017-12-19T22:52:46.527Z,76.51
2017-12-19T22:55:14.130Z,75.37
2017-12-19T22:57:41.735Z,75.67
2017-12-19T23:00:09.395Z,76.50
2017-12-19T23:02:37.014Z,76.29
2017-12-19T23:05:04.733Z,75.73
2017-12-19T23:07:32.387Z,75.67
2017-12-19T23:09:59.991Z,74.35
2017-12-19T23:12:27.603Z,75.21
2017-12-19T23:14:55.270Z,75.86
2017-12-19T23:17:22.871Z,76.16
2017-12-19T23:19:50.475Z,76.51
2017-12-19T23:22:18.127Z,76.89
2017-12-19T23:24:45.722Z,77.40
2017-12-19T23:27:13.331Z,76.90
2017-12-19T23:29:41.040Z,77.61
2017-12-19T23:32:08.651Z,77.66
2017-12-19T23:34:36.254Z,77.69
2017-12-19T23:37:03.971Z,77.71
2017-12-19T23:39:31.604Z,78.17
2017-12-19T23:41:59.202Z,77.61
2017-12-19T23:44:26.920Z,77.48
2017-12-19T23:46:54.530Z,77.53
2017-12-19T23:49:22.131Z,76.94
2017-12-19T23:51:49.888Z,77.06
2017-12-19T23:54:17.495Z,77.54
2017-12-19T23:56:45.159Z,76.43
2017-12-19T23:59:12.815Z,75.94
